KHRJ

Details ICAO KHRJ
Name HARNETT COUNTY
Region United States
Timezone America/New_York (UTC-5.0)
Plans Departing 5
Arriving 2
Stats Elevation 202 ft / 62 m (AMSL)
Location 35.380156° -78.732235°
Runways 1
Magnetic Variation 9.129° W
Sunrise 2017-12-14 12:17:27 UTC / 2017-12-14 07:17:27 Local
Sunset 2017-12-14 22:04:46 UTC / 2017-12-14 17:04:46 Local
Advertisement - Login to hide

Runways

ID Width Length Bearing (true) Bearing (mag) Surface Threshold Offset Overrun Length
05 75 ft / 23 m 5,002 ft / 1,525 m 39.83° 48.96° Asphalt 0 ft / 0 m 0 ft / 0 m
23 75 ft / 23 m 5,002 ft / 1,525 m 219.83° 228.96° Asphalt 50 ft / 15 m 0 ft / 0 m

Map

Weather


0- 5 10 15 20 25 30 35+ Temperature / ° C

Clouds and Precipitation
Forecast for 2017-12-15 06:00 UTC. Updated 2 hours ago

Ground ~20,000 ft ~40,000 ft Winds

METAR

KHRJ 150245Z AUTO 03003KT 10SM CLR 03/M03 A3000 RMK AO2 T00271026

TAF

Not found

Frequencies

Recorded 119.02 MHz AWOS 3
Approach 125.17 MHz FAYETTEVILLE APP/DEP
Unicom 122.70 MHz CTAF/UNICOM
Warning: Do not use this data for real-world aviation or navigation. No guarantee of current accuracy is given.